createdAt,value
2018-03-18T00:00:23.041Z,20.90
2018-03-18T00:02:50.441Z,22.10
2018-03-18T00:05:17.854Z,21.30
2018-03-18T00:07:45.256Z,21.35
2018-03-18T00:10:12.649Z,21.00
2018-03-18T00:12:40.042Z,21.08
2018-03-18T00:15:07.438Z,19.80
2018-03-18T00:17:34.837Z,21.02
2018-03-18T00:20:02.228Z,21.27
2018-03-18T00:22:29.609Z,21.08
2018-03-18T00:24:57.005Z,20.50
2018-03-18T00:27:24.402Z,21.92
2018-03-18T00:29:51.809Z,22.05
2018-03-18T00:32:19.200Z,21.40
2018-03-18T00:34:46.612Z,21.58
2018-03-18T00:37:13.993Z,20.83
2018-03-18T00:39:41.389Z,20.83
2018-03-18T00:42:08.782Z,20.60
2018-03-18T00:44:36.173Z,20.35
2018-03-18T00:47:03.567Z,21.90
2018-03-18T00:49:30.990Z,20.85
2018-03-18T00:52:01.224Z,22.45
2018-03-18T00:54:28.616Z,22.13
2018-03-18T00:56:56.007Z,23.70
2018-03-18T00:59:23.405Z,21.58
2018-03-18T01:01:50.798Z,20.77
2018-03-18T01:04:18.201Z,19.50
2018-03-18T01:06:45.591Z,21.52
2018-03-18T01:09:12.988Z,22.13
2018-03-18T01:11:40.477Z,21.60
2018-03-18T01:14:07.925Z,20.02
2018-03-18T01:16:35.262Z,20.10
2018-03-18T01:19:02.650Z,20.35
2018-03-18T01:21:30.046Z,21.02
2018-03-18T01:23:57.461Z,20.00
2018-03-18T01:26:24.856Z,20.45
2018-03-18T01:28:52.254Z,20.83
2018-03-18T01:31:19.648Z,22.45
2018-03-18T01:33:47.048Z,21.02
2018-03-18T01:36:14.429Z,21.55
2018-03-18T01:38:41.839Z,21.30
2018-03-18T01:41:09.221Z,22.02
2018-03-18T01:43:36.624Z,21.65
2018-03-18T01:46:04.010Z,21.92
2018-03-18T01:48:31.392Z,21.83
2018-03-18T01:50:58.790Z,21.30
2018-03-18T01:53:26.173Z,20.92
2018-03-18T01:55:53.582Z,20.17
2018-03-18T01:58:20.968Z,21.48
2018-03-18T02:00:48.353Z,19.83
2018-03-18T02:03:15.758Z,20.80
2018-03-18T02:05:43.153Z,20.60
2018-03-18T02:08:10.549Z,21.00
2018-03-18T02:10:37.937Z,20.90
2018-03-18T02:13:05.335Z,20.85
2018-03-18T02:15:32.730Z,20.45
2018-03-18T02:18:00.122Z,20.67
2018-03-18T02:20:27.521Z,19.83
2018-03-18T02:22:54.913Z,20.77
2018-03-18T02:25:22.320Z,22.05
2018-03-18T02:27:49.704Z,20.23
2018-03-18T02:30:17.175Z,21.15
2018-03-18T02:32:44.597Z,21.65
2018-03-18T02:35:11.999Z,21.37
2018-03-18T02:37:39.373Z,20.75
2018-03-18T02:40:06.778Z,21.45
2018-03-18T02:42:34.169Z,20.12
2018-03-18T02:45:01.592Z,20.25
2018-03-18T02:47:29.301Z,21.48
2018-03-18T02:49:56.779Z,20.12
2018-03-18T02:52:24.145Z,21.25
2018-03-18T02:54:51.545Z,21.40
2018-03-18T02:57:19.009Z,20.60
2018-03-18T02:59:46.365Z,20.45
2018-03-18T03:02:13.761Z,19.52
2018-03-18T03:04:41.211Z,20.58
2018-03-18T03:07:08.621Z,19.80
2018-03-18T03:09:36.066Z,20.33
2018-03-18T03:12:03.474Z,20.25
2018-03-18T03:14:30.852Z,20.52
2018-03-18T03:16:58.265Z,20.77
2018-03-18T03:19:25.648Z,21.08
2018-03-18T03:21:53.091Z,20.23
2018-03-18T03:24:20.529Z,19.90
2018-03-18T03:26:47.944Z,20.50
2018-03-18T03:29:15.376Z,20.73
2018-03-18T03:31:42.766Z,20.42
2018-03-18T03:34:10.184Z,19.60
2018-03-18T03:36:37.553Z,19.85
2018-03-18T03:39:04.952Z,21.15
2018-03-18T03:41:32.341Z,19.02
2018-03-18T03:43:59.739Z,19.35
2018-03-18T03:46:27.140Z,19.90
2018-03-18T03:48:54.539Z,19.75
2018-03-18T03:51:21.930Z,18.33
2018-03-18T03:53:49.331Z,17.75
2018-03-18T03:56:16.725Z,19.17
2018-03-18T03:58:44.125Z,19.45
2018-03-18T04:01:11.531Z,17.87
2018-03-18T04:03:38.924Z,18.67
2018-03-18T04:06:06.325Z,18.23
2018-03-18T04:08:33.754Z,19.80
2018-03-18T04:11:01.153Z,18.92
2018-03-18T04:13:28.540Z,18.25
2018-03-18T04:15:55.936Z,20.00
2018-03-18T04:18:23.333Z,19.70
2018-03-18T04:20:50.945Z,19.92
2018-03-18T04:23:18.349Z,19.37
2018-03-18T04:25:45.740Z,19.85
2018-03-18T04:28:13.149Z,19.20
2018-03-18T04:30:40.564Z,19.67
2018-03-18T04:33:07.957Z,20.10
2018-03-18T04:35:35.345Z,21.00
2018-03-18T04:38:02.742Z,20.35
2018-03-18T04:40:30.133Z,19.65
2018-03-18T04:42:57.520Z,19.12
2018-03-18T04:45:24.912Z,19.45
2018-03-18T04:47:52.312Z,19.25
2018-03-18T04:50:19.715Z,19.83
2018-03-18T04:52:47.110Z,19.12
2018-03-18T04:55:14.505Z,20.23
2018-03-18T04:57:41.948Z,19.58
2018-03-18T05:00:09.322Z,19.35
2018-03-18T05:02:36.746Z,18.23
2018-03-18T05:05:04.135Z,20.15
2018-03-18T05:07:31.550Z,20.10
2018-03-18T05:09:58.959Z,19.33
2018-03-18T05:12:26.357Z,18.12
2018-03-18T05:14:53.761Z,19.17
2018-03-18T05:17:21.149Z,21.00
2018-03-18T05:19:48.537Z,20.45
2018-03-18T05:22:15.949Z,20.73
2018-03-18T05:24:43.374Z,20.15
2018-03-18T05:27:10.764Z,19.65
2018-03-18T05:29:38.182Z,21.02
2018-03-18T05:32:05.589Z,19.40
2018-03-18T05:34:33.025Z,19.52
2018-03-18T05:37:00.416Z,19.95
2018-03-18T05:39:27.865Z,19.23
2018-03-18T05:41:55.260Z,19.73
2018-03-18T05:44:22.646Z,18.65
2018-03-18T05:46:50.045Z,17.80
2018-03-18T05:49:17.501Z,19.35
2018-03-18T05:51:44.897Z,18.20
2018-03-18T05:54:12.356Z,17.92
2018-03-18T05:56:39.809Z,20.37
2018-03-18T05:59:07.247Z,19.30
2018-03-18T06:01:34.646Z,20.02
2018-03-18T06:04:02.047Z,19.60
2018-03-18T06:06:29.445Z,19.42
2018-03-18T06:08:56.836Z,19.27
2018-03-18T06:11:24.239Z,20.10
2018-03-18T06:13:51.644Z,20.30
2018-03-18T06:16:19.061Z,20.05
2018-03-18T06:18:46.457Z,20.52
2018-03-18T06:21:13.865Z,19.85
2018-03-18T06:23:41.274Z,21.25
2018-03-18T06:26:08.674Z,21.33
2018-03-18T06:28:36.116Z,21.75
2018-03-18T06:31:03.542Z,20.67
2018-03-18T06:33:30.943Z,19.37
2018-03-18T06:35:58.352Z,20.02
2018-03-18T06:38:25.741Z,20.80
2018-03-18T06:40:53.171Z,18.80
2018-03-18T06:43:20.558Z,18.35
2018-03-18T06:45:47.944Z,19.65
2018-03-18T06:48:15.373Z,19.73
2018-03-18T06:50:42.821Z,19.62
2018-03-18T06:53:10.208Z,19.35
2018-03-18T06:55:40.768Z,18.83
2018-03-18T06:58:08.268Z,19.92
2018-03-18T07:00:36.618Z,20.02
2018-03-18T07:03:04.061Z,18.87
2018-03-18T07:05:31.495Z,18.83
2018-03-18T07:07:58.891Z,18.50
2018-03-18T07:10:26.293Z,19.42
2018-03-18T07:12:55.497Z,19.67
2018-03-18T07:15:22.898Z,17.73
2018-03-18T07:17:50.348Z,18.52
2018-03-18T07:20:17.767Z,18.20
2018-03-18T07:22:45.181Z,19.30
2018-03-18T07:25:12.578Z,18.50
2018-03-18T07:27:39.974Z,19.55
2018-03-18T07:30:07.382Z,19.40
2018-03-18T07:32:34.768Z,18.92
2018-03-18T07:35:02.160Z,19.15
2018-03-18T07:37:29.557Z,18.35
2018-03-18T07:39:56.959Z,18.17
2018-03-18T07:42:24.361Z,17.42
2018-03-18T07:44:51.745Z,18.60
2018-03-18T07:47:19.182Z,17.92
2018-03-18T07:49:46.536Z,18.40
2018-03-18T07:52:13.921Z,17.80
2018-03-18T07:54:41.326Z,17.83
2018-03-18T07:57:08.717Z,16.33
2018-03-18T07:59:36.118Z,18.87
2018-03-18T08:02:03.537Z,17.45
2018-03-18T08:04:30.909Z,18.05
2018-03-18T08:06:59.350Z,19.20
2018-03-18T08:09:26.741Z,17.70
2018-03-18T08:11:54.137Z,18.70
2018-03-18T08:14:21.533Z,18.85
2018-03-18T08:16:48.920Z,17.87
2018-03-18T08:19:16.321Z,19.20
2018-03-18T08:21:43.715Z,18.40
2018-03-18T08:24:11.105Z,19.23
2018-03-18T08:26:38.493Z,17.85
2018-03-18T08:29:05.881Z,17.70
2018-03-18T08:31:33.277Z,18.10
2018-03-18T08:34:00.669Z,18.30
2018-03-18T08:36:28.071Z,18.37
2018-03-18T08:39:02.296Z,17.17
2018-03-18T08:41:29.706Z,17.75
2018-03-18T08:43:57.116Z,18.12
2018-03-18T08:46:24.508Z,17.45
2018-03-18T08:48:51.900Z,18.08
2018-03-18T08:51:19.293Z,19.25
2018-03-18T08:53:46.702Z,18.42
2018-03-18T08:56:14.096Z,19.40
2018-03-18T08:58:41.485Z,18.77
2018-03-18T09:01:08.883Z,17.87
2018-03-18T09:03:36.265Z,19.15
2018-03-18T09:06:03.671Z,17.10
2018-03-18T09:08:31.059Z,18.60
2018-03-18T09:10:58.447Z,17.35
2018-03-18T09:13:25.841Z,18.10
2018-03-18T09:15:53.229Z,18.08
2018-03-18T09:18:20.633Z,16.98
2018-03-18T09:20:48.042Z,18.37
2018-03-18T09:23:15.425Z,18.25
2018-03-18T09:25:42.855Z,17.92
2018-03-18T09:28:10.213Z,17.90
2018-03-18T09:30:37.625Z,17.10
2018-03-18T09:33:05.020Z,17.23
2018-03-18T09:35:32.417Z,18.05
2018-03-18T09:37:59.821Z,16.83
2018-03-18T09:40:27.213Z,17.80
2018-03-18T09:42:54.621Z,17.25
2018-03-18T09:45:22.001Z,17.90
2018-03-18T09:47:49.386Z,16.80
2018-03-18T09:50:16.783Z,17.25
2018-03-18T09:52:44.174Z,17.45
2018-03-18T09:55:11.569Z,17.40
2018-03-18T09:57:38.966Z,16.90
2018-03-18T10:00:06.353Z,16.55
2018-03-18T10:02:33.769Z,16.05
2018-03-18T10:05:01.139Z,16.75
2018-03-18T10:07:28.545Z,15.68
2018-03-18T10:09:55.937Z,16.65
2018-03-18T10:12:23.329Z,15.55
2018-03-18T10:14:50.721Z,16.42
2018-03-18T10:17:18.136Z,17.90
2018-03-18T10:19:45.537Z,16.80
2018-03-18T10:22:12.958Z,15.50
2018-03-18T10:24:40.338Z,15.52
2018-03-18T10:27:07.750Z,16.12
2018-03-18T10:29:35.133Z,16.48
2018-03-18T10:32:02.543Z,16.42
2018-03-18T10:34:29.937Z,16.55
2018-03-18T10:36:57.327Z,16.33
2018-03-18T10:39:24.721Z,18.27
2018-03-18T10:41:52.149Z,16.37
2018-03-18T10:44:19.514Z,16.05
2018-03-18T10:46:46.903Z,16.67
2018-03-18T10:49:14.299Z,16.70
2018-03-18T10:51:41.709Z,16.37
2018-03-18T10:54:09.102Z,15.20
2018-03-18T10:56:36.521Z,15.38
2018-03-18T10:59:03.909Z,14.90
2018-03-18T11:01:48.997Z,16.00
2018-03-18T11:04:17.329Z,15.32
2018-03-18T11:06:44.729Z,14.80
2018-03-18T11:09:12.148Z,15.85
2018-03-18T11:11:39.537Z,15.57
2018-03-18T11:14:06.934Z,15.88
2018-03-18T11:16:34.333Z,14.70
2018-03-18T11:19:01.725Z,14.98
2018-03-18T11:21:29.145Z,15.40
2018-03-18T11:23:56.553Z,15.70
2018-03-18T11:26:23.933Z,16.00
2018-03-18T11:28:51.333Z,14.50
2018-03-18T11:31:18.738Z,14.43
2018-03-18T11:33:46.142Z,15.25
2018-03-18T11:36:13.555Z,16.20
2018-03-18T11:38:40.969Z,15.25
2018-03-18T11:41:08.349Z,13.88
2018-03-18T11:43:35.785Z,14.80
2018-03-18T11:46:03.145Z,15.15
2018-03-18T11:48:30.541Z,14.15
2018-03-18T11:50:57.936Z,14.05
2018-03-18T11:53:25.334Z,15.00
2018-03-18T11:55:52.764Z,15.75
2018-03-18T11:58:20.122Z,14.38
2018-03-18T12:00:47.529Z,15.23
2018-03-18T12:03:14.918Z,15.63
2018-03-18T12:05:42.328Z,14.40
2018-03-18T12:11:02.685Z,14.85
2018-03-18T12:13:30.093Z,14.20
2018-03-18T12:15:57.485Z,15.13
2018-03-18T12:18:24.899Z,14.43
2018-03-18T12:20:52.313Z,15.05
2018-03-18T12:23:19.706Z,15.43
2018-03-18T12:25:47.106Z,14.10
2018-03-18T12:28:14.501Z,14.27
2018-03-18T12:30:41.889Z,14.68
2018-03-18T12:33:09.281Z,14.57
2018-03-18T12:35:36.687Z,14.02
2018-03-18T12:38:04.083Z,14.30
2018-03-18T12:40:34.069Z,15.30
2018-03-18T12:43:13.153Z,14.02
2018-03-18T12:45:40.557Z,14.07
2018-03-18T12:48:07.953Z,13.48
2018-03-18T12:50:35.345Z,14.80
2018-03-18T12:53:02.742Z,14.35
2018-03-18T12:55:30.165Z,14.75
2018-03-18T12:57:57.554Z,14.63
2018-03-18T13:00:24.943Z,13.90
2018-03-18T13:02:52.341Z,14.87
2018-03-18T13:05:19.794Z,13.75
2018-03-18T13:07:47.213Z,14.87
2018-03-18T13:10:14.661Z,14.50
2018-03-18T13:12:42.077Z,13.95
2018-03-18T13:15:09.502Z,14.23
2018-03-18T13:17:36.909Z,13.60
2018-03-18T13:20:04.317Z,14.20
2018-03-18T13:22:31.704Z,15.63
2018-03-18T13:24:59.102Z,14.80
2018-03-18T13:27:26.505Z,15.80
2018-03-18T13:29:53.890Z,14.90
2018-03-18T13:32:21.285Z,16.47
2018-03-18T13:34:48.677Z,15.60
2018-03-18T13:37:16.062Z,14.00
2018-03-18T13:39:43.448Z,14.13
2018-03-18T13:42:10.833Z,14.80
2018-03-18T13:44:38.228Z,13.67
2018-03-18T13:47:05.624Z,15.53
2018-03-18T13:49:33.001Z,15.13
2018-03-18T13:52:00.389Z,14.73
2018-03-18T13:54:27.778Z,14.67
2018-03-18T13:56:55.169Z,15.30
2018-03-18T13:59:22.570Z,14.97
2018-03-18T14:01:49.929Z,15.77
2018-03-18T14:04:17.320Z,14.70
2018-03-18T14:06:44.706Z,14.50
2018-03-18T14:09:12.114Z,14.90
2018-03-18T14:11:39.497Z,15.57
2018-03-18T14:14:06.877Z,14.60
2018-03-18T14:16:34.303Z,16.57
2018-03-18T14:19:01.673Z,13.63
2018-03-18T14:21:29.073Z,13.50
2018-03-18T14:23:56.457Z,14.00
2018-03-18T14:26:23.833Z,14.37
2018-03-18T14:28:51.225Z,14.37
2018-03-18T14:31:18.612Z,14.20
2018-03-18T14:33:46.013Z,13.70
2018-03-18T14:36:13.403Z,14.30
2018-03-18T14:38:40.789Z,14.50
2018-03-18T14:41:09.229Z,14.43
2018-03-18T14:43:36.636Z,14.38
2018-03-18T14:46:04.023Z,13.90
2018-03-18T14:48:31.451Z,13.68
2018-03-18T14:50:58.861Z,14.00
2018-03-18T14:53:26.238Z,14.40
2018-03-18T14:55:53.689Z,14.27
2018-03-18T14:58:21.122Z,14.00
2018-03-18T15:00:48.605Z,14.33
2018-03-18T15:03:16.013Z,14.97
2018-03-18T15:05:43.468Z,12.80
2018-03-18T15:08:10.953Z,14.00
2018-03-18T15:10:38.361Z,14.97
2018-03-18T15:13:05.744Z,14.27
2018-03-18T15:15:33.118Z,14.70
2018-03-18T15:18:00.531Z,13.00
2018-03-18T15:20:27.920Z,13.10
2018-03-18T15:22:56.354Z,14.53
2018-03-18T15:25:23.749Z,14.00
2018-03-18T15:27:51.137Z,12.47
2018-03-18T15:30:18.560Z,12.67
2018-03-18T15:32:45.968Z,13.17
2018-03-18T15:35:13.358Z,13.60
2018-03-18T15:37:40.742Z,12.80
2018-03-18T15:40:08.175Z,13.97
2018-03-18T15:42:35.565Z,13.02
2018-03-18T15:45:02.956Z,13.40
2018-03-18T15:47:43.108Z,13.87
2018-03-18T15:50:10.530Z,12.80
2018-03-18T15:52:37.924Z,12.70
2018-03-18T15:55:05.338Z,12.90
2018-03-18T15:57:32.729Z,13.03
2018-03-18T16:00:00.118Z,12.20
2018-03-18T16:02:27.530Z,12.82
2018-03-18T16:04:54.909Z,12.80
2018-03-18T16:07:22.363Z,12.37
2018-03-18T16:09:49.683Z,12.77
2018-03-18T16:12:17.074Z,12.50
2018-03-18T16:14:44.453Z,12.95
2018-03-18T16:17:11.886Z,12.75
2018-03-18T16:19:39.265Z,12.00
2018-03-18T16:22:06.679Z,13.02
2018-03-18T16:24:34.052Z,12.07
2018-03-18T16:27:01.438Z,13.17
2018-03-18T16:29:40.473Z,12.10
2018-03-18T16:32:07.865Z,11.95
2018-03-18T16:34:35.258Z,12.57
2018-03-18T16:37:02.682Z,11.73
2018-03-18T16:39:30.067Z,12.95
2018-03-18T16:41:57.468Z,12.02
2018-03-18T16:44:24.872Z,12.50
2018-03-18T16:46:52.271Z,12.55
2018-03-18T16:49:19.659Z,13.77
2018-03-18T16:51:47.060Z,13.23
2018-03-18T16:54:14.540Z,12.02
2018-03-18T16:56:41.926Z,12.48
2018-03-18T16:59:09.332Z,12.70
2018-03-18T17:01:36.762Z,11.98
2018-03-18T17:04:04.167Z,13.40
2018-03-18T17:06:31.621Z,12.20
2018-03-18T17:08:58.962Z,12.52
2018-03-18T17:11:26.372Z,12.55
2018-03-18T17:13:53.769Z,11.57
2018-03-18T17:16:21.234Z,12.48
2018-03-18T17:18:48.742Z,12.25
2018-03-18T17:21:16.142Z,11.77
2018-03-18T17:23:43.525Z,11.77
2018-03-18T17:26:10.917Z,12.00
2018-03-18T17:28:39.380Z,14.23
2018-03-18T17:31:08.079Z,11.40
2018-03-18T17:33:35.545Z,12.02
2018-03-18T17:36:02.947Z,11.80
2018-03-18T17:38:30.338Z,11.18
2018-03-18T17:40:57.725Z,12.75
2018-03-18T17:43:25.137Z,11.40
2018-03-18T17:46:04.305Z,10.82
2018-03-18T17:48:43.387Z,11.60
2018-03-18T17:51:22.437Z,11.00
2018-03-18T17:54:01.617Z,10.68
2018-03-18T17:56:37.709Z,12.07
2018-03-18T17:59:05.114Z,11.68
2018-03-18T18:01:32.521Z,12.05
2018-03-18T18:04:00.428Z,11.57
2018-03-18T18:06:27.833Z,11.90
2018-03-18T18:08:55.263Z,12.52
2018-03-18T18:11:22.657Z,12.20
2018-03-18T18:13:50.302Z,11.18
2018-03-18T18:16:29.430Z,11.30
2018-03-18T18:18:56.835Z,12.20
2018-03-18T18:21:24.222Z,10.95
2018-03-18T18:23:52.755Z,12.25
2018-03-18T18:26:20.604Z,11.40
2018-03-18T18:28:48.006Z,11.40
2018-03-18T18:31:15.394Z,11.85
2018-03-18T18:33:42.880Z,12.50
2018-03-18T18:36:10.271Z,11.95
2018-03-18T18:38:37.712Z,12.52
2018-03-18T18:41:05.182Z,10.63
2018-03-18T18:43:32.576Z,12.35
2018-03-18T18:45:59.963Z,10.73
2018-03-18T18:48:27.373Z,11.63
2018-03-18T18:50:54.785Z,11.77
2018-03-18T18:53:22.177Z,11.48
2018-03-18T18:55:49.597Z,11.30
2018-03-18T18:58:16.981Z,11.20
2018-03-18T19:00:44.369Z,11.57
2018-03-18T19:03:11.781Z,10.85
2018-03-18T19:05:39.182Z,11.63
2018-03-18T19:08:06.570Z,12.05
2018-03-18T19:10:33.983Z,11.25
2018-03-18T19:13:01.369Z,11.82
2018-03-18T19:15:36.954Z,11.43
2018-03-18T19:18:04.357Z,12.05
2018-03-18T19:20:31.778Z,11.32
2018-03-18T19:22:59.377Z,11.65
2018-03-18T19:25:27.317Z,11.12
2018-03-18T19:27:54.898Z,11.55
2018-03-18T19:30:22.294Z,11.65
2018-03-18T19:32:50.177Z,11.20
2018-03-18T19:35:18.918Z,12.48
2018-03-18T19:37:46.314Z,13.52
2018-03-18T19:40:21.933Z,12.40
2018-03-18T19:42:49.325Z,12.60
2018-03-18T19:45:16.708Z,11.57
2018-03-18T19:47:44.094Z,11.88
2018-03-18T19:50:11.501Z,9.88
2018-03-18T19:52:38.925Z,10.48
2018-03-18T19:55:06.313Z,11.50
2018-03-18T19:57:33.830Z,11.60
2018-03-18T20:00:02.214Z,10.80
2018-03-18T20:02:29.629Z,11.25
2018-03-18T20:04:57.057Z,10.90
2018-03-18T20:07:24.451Z,10.48
2018-03-18T20:09:51.837Z,11.57
2018-03-18T20:12:19.254Z,10.75
2018-03-18T20:14:46.638Z,11.15
2018-03-18T20:17:14.022Z,11.00
2018-03-18T20:19:41.421Z,11.50
2018-03-18T20:22:08.907Z,11.18
2018-03-18T20:24:36.290Z,12.27
2018-03-18T20:27:03.765Z,12.00
2018-03-18T20:29:32.077Z,12.18
2018-03-18T20:31:59.469Z,12.40
2018-03-18T20:34:26.894Z,11.80
2018-03-18T20:36:54.297Z,11.68
2018-03-18T20:39:22.806Z,11.35
2018-03-18T20:42:02.706Z,12.57
2018-03-18T20:44:30.086Z,11.40
2018-03-18T20:46:57.469Z,10.48
2018-03-18T20:49:24.894Z,11.18
2018-03-18T20:51:52.277Z,11.57
2018-03-18T20:54:19.669Z,11.50
2018-03-18T20:56:47.083Z,11.40
2018-03-18T20:59:14.477Z,10.85
2018-03-18T21:01:41.853Z,11.00
2018-03-18T21:04:09.266Z,10.88
2018-03-18T21:06:36.654Z,10.85
2018-03-18T21:09:04.042Z,11.10
2018-03-18T21:11:31.440Z,11.05
2018-03-18T21:13:58.828Z,10.65
2018-03-18T21:16:26.213Z,11.15
2018-03-18T21:18:53.630Z,10.73
2018-03-18T21:21:21.017Z,10.70
2018-03-18T21:23:48.413Z,10.90
2018-03-18T21:26:15.837Z,11.77
2018-03-18T21:28:43.261Z,10.88
2018-03-18T21:31:15.066Z,11.27
2018-03-18T21:33:43.541Z,11.05
2018-03-18T21:36:10.982Z,10.90
2018-03-18T21:38:38.376Z,10.50
2018-03-18T21:41:06.109Z,11.15
2018-03-18T21:43:34.045Z,11.75
2018-03-18T21:46:01.441Z,10.35
2018-03-18T21:48:29.014Z,10.48
2018-03-18T21:50:57.297Z,11.48
2018-03-18T21:53:24.824Z,11.95
2018-03-18T21:55:52.251Z,11.07
2018-03-18T21:58:22.118Z,11.27
2018-03-18T22:00:49.615Z,11.10
2018-03-18T22:03:17.397Z,10.90
2018-03-18T22:05:44.840Z,11.30
2018-03-18T22:08:12.229Z,11.10
2018-03-18T22:10:39.649Z,12.45
2018-03-18T22:13:07.071Z,11.52
2018-03-18T22:15:34.511Z,11.90
2018-03-18T22:18:01.922Z,11.52
2018-03-18T22:20:29.310Z,11.45
2018-03-18T22:22:56.702Z,11.80
2018-03-18T22:25:26.325Z,12.13
2018-03-18T22:27:53.721Z,11.98
2018-03-18T22:30:21.153Z,11.93
2018-03-18T22:32:48.561Z,10.80
2018-03-18T22:35:15.962Z,12.45
2018-03-18T22:37:43.363Z,11.45
2018-03-18T22:40:10.762Z,12.13
2018-03-18T22:42:38.150Z,11.93
2018-03-18T22:45:05.537Z,11.18
2018-03-18T22:47:32.954Z,11.10
2018-03-18T22:50:00.350Z,12.57
2018-03-18T22:52:27.728Z,11.75
2018-03-18T22:54:55.153Z,11.60
2018-03-18T22:57:22.537Z,12.20
2018-03-18T22:59:49.928Z,12.77
2018-03-18T23:02:17.434Z,11.70
2018-03-18T23:04:44.837Z,12.45
2018-03-18T23:07:12.227Z,13.60
2018-03-18T23:09:39.618Z,12.93
2018-03-18T23:12:07.007Z,11.80
2018-03-18T23:14:34.402Z,12.25
2018-03-18T23:17:01.810Z,12.48
2018-03-18T23:19:29.197Z,11.88
2018-03-18T23:21:56.583Z,11.50
2018-03-18T23:24:24.006Z,12.13
2018-03-18T23:26:51.384Z,12.00
2018-03-18T23:29:18.777Z,11.43
2018-03-18T23:31:46.174Z,11.60
2018-03-18T23:34:13.557Z,11.15
2018-03-18T23:36:40.949Z,11.70
2018-03-18T23:39:08.345Z,12.95
2018-03-18T23:41:35.745Z,12.10
2018-03-18T23:44:03.134Z,11.55
2018-03-18T23:46:30.549Z,11.98
2018-03-18T23:48:57.932Z,11.80
2018-03-18T23:51:25.328Z,12.23
2018-03-18T23:53:52.719Z,12.07
2018-03-18T23:56:20.109Z,11.82
2018-03-18T23:58:47.490Z,12.25
